createdAt,value
2023-04-17T00:00:51.546Z,34.30
2023-04-17T00:03:18.689Z,41.38
2023-04-17T00:05:46.221Z,40.42
2023-04-17T00:08:13.223Z,33.83
2023-04-17T00:10:40.441Z,40.00
2023-04-17T00:13:07.516Z,35.28
2023-04-17T00:15:34.520Z,32.00
2023-04-17T00:18:01.667Z,27.38
2023-04-17T00:20:28.962Z,28.02
2023-04-17T00:22:56.022Z,26.90
2023-04-17T00:25:23.212Z,25.02
2023-04-17T00:27:51.460Z,27.98
2023-04-17T00:30:18.696Z,29.67
2023-04-17T00:32:45.911Z,30.17
2023-04-17T00:35:13.025Z,28.33
2023-04-17T00:37:40.133Z,30.50
2023-04-17T00:40:07.723Z,32.10
2023-04-17T00:42:34.788Z,25.30
2023-04-17T00:45:01.966Z,27.00
2023-04-17T00:47:29.076Z,23.25
2023-04-17T00:49:56.257Z,26.33
2023-04-17T00:52:29.794Z,31.45
2023-04-17T00:54:58.405Z,24.42
2023-04-17T00:57:26.605Z,26.17
2023-04-17T00:59:56.562Z,23.42
2023-04-17T01:02:26.072Z,21.67
2023-04-17T01:04:53.344Z,22.30
2023-04-17T01:07:21.571Z,26.05
2023-04-17T01:09:48.573Z,22.63
2023-04-17T01:12:23.913Z,23.40
2023-04-17T01:14:52.805Z,25.42
2023-04-17T01:17:20.564Z,20.90
2023-04-17T01:19:49.548Z,21.60
2023-04-17T01:22:16.616Z,27.00
2023-04-17T01:24:43.853Z,23.63
2023-04-17T01:27:13.720Z,26.55
2023-04-17T01:29:41.976Z,22.80
2023-04-17T01:32:09.222Z,25.70
2023-04-17T01:34:37.622Z,29.52
2023-04-17T01:37:05.615Z,25.10
2023-04-17T01:39:32.925Z,21.20
2023-04-17T01:42:00.001Z,22.85
2023-04-17T01:44:27.039Z,25.95
2023-04-17T01:46:54.045Z,24.65
2023-04-17T01:49:21.387Z,27.58
2023-04-17T01:51:48.994Z,24.60
2023-04-17T01:54:16.145Z,26.42
2023-04-17T01:56:43.438Z,30.63
2023-04-17T01:59:10.946Z,23.17
2023-04-17T02:01:38.332Z,24.05
2023-04-17T02:04:05.767Z,23.45
2023-04-17T02:06:32.971Z,20.98
2023-04-17T02:09:00.072Z,19.08
2023-04-17T02:11:27.075Z,22.48
2023-04-17T02:13:54.126Z,20.98
2023-04-17T02:16:24.569Z,20.13
2023-04-17T02:18:52.239Z,25.25
2023-04-17T02:21:19.378Z,28.42
2023-04-17T02:23:46.719Z,18.65
2023-04-17T02:26:13.748Z,22.10
2023-04-17T02:28:43.775Z,23.42
2023-04-17T02:31:12.249Z,19.15
2023-04-17T02:33:39.344Z,19.45
2023-04-17T02:36:06.834Z,23.58
2023-04-17T02:38:34.112Z,21.25
2023-04-17T02:41:01.142Z,25.08
2023-04-17T02:43:28.234Z,23.08
2023-04-17T02:45:55.383Z,26.63
2023-04-17T02:48:22.998Z,21.40
2023-04-17T02:50:50.165Z,29.13
2023-04-17T02:53:17.276Z,23.95
2023-04-17T02:55:44.289Z,23.08
2023-04-17T02:58:11.460Z,22.52
2023-04-17T03:00:39.532Z,24.83
2023-04-17T03:03:07.806Z,28.75
2023-04-17T03:05:35.890Z,24.80
2023-04-17T03:08:03.281Z,26.27
2023-04-17T03:10:30.393Z,24.25
2023-04-17T03:12:57.420Z,29.20
2023-04-17T03:15:24.485Z,26.85
2023-04-17T03:17:51.930Z,30.52
2023-04-17T03:20:19.076Z,21.98
2023-04-17T03:22:46.155Z,28.50
2023-04-17T03:25:13.230Z,28.67
2023-04-17T03:27:40.815Z,25.55
2023-04-17T03:30:08.614Z,26.80
2023-04-17T03:32:36.043Z,26.15
2023-04-17T03:35:03.194Z,21.67
2023-04-17T03:37:32.031Z,27.25
2023-04-17T03:39:59.147Z,22.23
2023-04-17T03:42:27.099Z,25.60
2023-04-17T03:44:55.409Z,21.92
2023-04-17T03:47:23.612Z,27.92
2023-04-17T03:49:50.702Z,25.45
2023-04-17T03:52:17.793Z,32.35
2023-04-17T03:54:44.809Z,30.40
2023-04-17T03:57:11.772Z,22.33
2023-04-17T03:59:38.842Z,25.98
2023-04-17T04:02:05.913Z,26.10
2023-04-17T04:04:33.291Z,25.80
2023-04-17T04:07:01.676Z,27.42
2023-04-17T04:09:28.798Z,26.38
2023-04-17T04:11:57.300Z,31.00
2023-04-17T04:14:24.356Z,25.90
2023-04-17T04:16:52.968Z,32.00
2023-04-17T04:19:20.067Z,25.40
2023-04-17T04:21:47.427Z,30.30
2023-04-17T04:24:14.500Z,28.92
2023-04-17T04:26:42.287Z,30.80
2023-04-17T04:29:11.759Z,30.98
2023-04-17T04:31:39.153Z,26.52
2023-04-17T04:34:06.323Z,29.38
2023-04-17T04:36:36.392Z,28.85
2023-04-17T04:39:06.783Z,32.95
2023-04-17T04:41:34.109Z,30.88
2023-04-17T04:44:01.663Z,28.80
2023-04-17T04:46:28.834Z,27.42
2023-04-17T04:48:55.852Z,31.35
2023-04-17T04:51:23.232Z,33.47
2023-04-17T04:53:50.769Z,38.70
2023-04-17T04:56:17.861Z,35.20
2023-04-17T04:58:44.931Z,33.67
2023-04-17T05:01:12.234Z,30.48
2023-04-17T05:03:40.852Z,30.83
2023-04-17T05:06:09.350Z,28.88
2023-04-17T05:08:36.558Z,33.75
2023-04-17T05:11:03.765Z,30.20
2023-04-17T05:13:30.896Z,35.33
2023-04-17T05:16:00.216Z,28.00
2023-04-17T05:18:28.505Z,27.52
2023-04-17T05:20:55.553Z,29.58
2023-04-17T05:23:23.293Z,31.92
2023-04-17T05:25:50.910Z,27.02
2023-04-17T05:28:17.997Z,26.65
2023-04-17T05:30:45.859Z,33.47
2023-04-17T05:33:12.992Z,33.97
2023-04-17T05:35:40.251Z,31.02
2023-04-17T05:38:08.030Z,27.80
2023-04-17T05:40:35.340Z,31.50
2023-04-17T05:43:10.413Z,36.03
2023-04-17T05:45:37.640Z,35.97
2023-04-17T05:48:04.821Z,36.63
2023-04-17T05:50:32.163Z,34.05
2023-04-17T05:52:59.273Z,33.53
2023-04-17T05:55:26.689Z,34.20
2023-04-17T05:57:54.139Z,28.77
2023-04-17T06:00:22.993Z,34.58
2023-04-17T06:02:51.119Z,35.45
2023-04-17T06:05:18.754Z,46.10
2023-04-17T06:07:46.200Z,40.33
2023-04-17T06:10:13.232Z,43.00
2023-04-17T06:12:40.280Z,35.85
2023-04-17T06:15:10.936Z,37.97
2023-04-17T06:17:40.838Z,38.38
2023-04-17T06:20:11.991Z,45.92
2023-04-17T06:22:39.970Z,38.75
2023-04-17T06:25:08.112Z,37.22
2023-04-17T06:27:36.777Z,40.40
2023-04-17T06:30:05.297Z,39.10
2023-04-17T06:32:32.541Z,42.05
2023-04-17T06:34:59.917Z,33.80
2023-04-17T06:37:27.035Z,37.22
2023-04-17T06:39:54.248Z,37.47
2023-04-17T06:42:21.325Z,36.33
2023-04-17T06:44:48.301Z,44.72
2023-04-17T06:47:15.682Z,34.85
2023-04-17T06:49:42.827Z,37.03
2023-04-17T06:52:09.909Z,38.55
2023-04-17T06:54:38.097Z,38.17
2023-04-17T06:57:06.641Z,35.53
2023-04-17T06:59:34.176Z,44.60
2023-04-17T07:02:02.662Z,39.33
2023-04-17T07:04:32.862Z,37.05
2023-04-17T07:06:59.948Z,31.92
2023-04-17T07:09:27.324Z,31.20
2023-04-17T07:11:54.427Z,35.80
2023-04-17T07:14:23.075Z,32.53
2023-04-17T07:16:50.301Z,34.53
2023-04-17T07:19:17.448Z,35.55
2023-04-17T07:21:44.502Z,38.17
2023-04-17T07:24:11.631Z,32.10
2023-04-17T07:26:40.265Z,30.33
2023-04-17T07:29:07.443Z,40.45
2023-04-17T07:31:35.112Z,32.58
2023-04-17T07:34:02.214Z,32.40
2023-04-17T07:36:29.962Z,31.92
2023-04-17T07:38:57.150Z,35.08
2023-04-17T07:41:27.436Z,31.85
2023-04-17T07:43:55.208Z,38.35
2023-04-17T07:46:23.377Z,30.65
2023-04-17T07:48:51.029Z,35.83
2023-04-17T07:51:18.148Z,34.40
2023-04-17T07:53:45.212Z,30.95
2023-04-17T07:56:13.176Z,29.80
2023-04-17T07:58:40.496Z,32.78
2023-04-17T08:01:07.749Z,25.00
2023-04-17T08:03:34.942Z,29.70
2023-04-17T08:06:02.141Z,37.20
2023-04-17T08:08:29.204Z,31.95
2023-04-17T08:10:56.350Z,28.48
2023-04-17T08:13:23.489Z,30.45
2023-04-17T08:15:52.263Z,31.38
2023-04-17T08:18:19.513Z,28.50
2023-04-17T08:20:47.315Z,28.48
2023-04-17T08:23:14.441Z,31.15
2023-04-17T08:25:41.530Z,25.13
2023-04-17T08:28:08.540Z,32.78
2023-04-17T08:30:35.951Z,27.52
2023-04-17T08:33:03.234Z,26.58
2023-04-17T08:35:30.332Z,28.05
2023-04-17T08:37:59.597Z,31.52
2023-04-17T08:40:26.964Z,31.58
2023-04-17T08:42:54.642Z,26.17
2023-04-17T08:45:26.707Z,32.58
2023-04-17T08:47:53.922Z,23.70
2023-04-17T08:50:22.387Z,27.75
2023-04-17T08:52:52.249Z,27.05
2023-04-17T08:55:22.400Z,26.55
2023-04-17T08:58:04.517Z,29.83
2023-04-17T09:00:32.777Z,29.65
2023-04-17T09:03:01.830Z,25.52
2023-04-17T09:05:39.138Z,29.10
2023-04-17T09:08:13.601Z,27.27
2023-04-17T09:10:43.638Z,27.33
2023-04-17T09:13:14.729Z,24.95
2023-04-17T09:15:43.518Z,28.55
2023-04-17T09:18:31.298Z,23.75
2023-04-17T09:21:03.169Z,26.40
2023-04-17T09:23:46.202Z,24.13
2023-04-17T09:26:14.992Z,23.05
2023-04-17T09:28:59.761Z,29.35
2023-04-17T09:31:29.881Z,25.65
2023-04-17T09:33:58.423Z,25.73
2023-04-17T09:36:27.463Z,26.88
2023-04-17T09:38:54.617Z,28.20
2023-04-17T09:41:27.433Z,22.88
2023-04-17T09:43:56.551Z,30.07
2023-04-17T09:46:32.420Z,32.08
2023-04-17T09:49:08.023Z,29.38
2023-04-17T09:51:35.701Z,22.42
2023-04-17T09:54:07.085Z,24.63
2023-04-17T09:56:35.514Z,27.88
2023-04-17T09:59:05.041Z,24.52
2023-04-17T10:01:33.959Z,24.55
2023-04-17T10:04:02.439Z,27.58
2023-04-17T10:06:33.976Z,24.98
2023-04-17T10:09:02.625Z,28.15
2023-04-17T10:11:37.839Z,26.63
2023-04-17T10:14:22.218Z,26.02
2023-04-17T10:16:50.415Z,23.98
2023-04-17T10:19:33.321Z,23.58
2023-04-17T10:22:15.388Z,25.83
2023-04-17T10:24:43.087Z,26.15
2023-04-17T10:27:33.053Z,21.75
2023-04-17T10:30:02.276Z,32.30
2023-04-17T10:32:30.710Z,25.42
2023-04-17T10:35:03.889Z,26.83
2023-04-17T10:37:52.275Z,30.65
2023-04-17T10:40:27.058Z,27.23
2023-04-17T10:43:11.217Z,28.83
2023-04-17T10:46:08.744Z,24.50
2023-04-17T10:48:42.377Z,29.45
2023-04-17T10:51:21.276Z,34.50
2023-04-17T10:54:01.891Z,28.00
2023-04-17T10:56:44.794Z,27.67
2023-04-17T10:59:16.815Z,31.13
2023-04-17T11:01:50.853Z,26.23
2023-04-17T11:04:31.952Z,23.58
2023-04-17T11:07:00.712Z,24.45
2023-04-17T11:09:29.510Z,29.25
2023-04-17T11:12:01.807Z,24.42
2023-04-17T11:14:30.521Z,30.30
2023-04-17T11:16:57.726Z,21.67
2023-04-17T11:19:25.924Z,23.50
2023-04-17T11:21:57.192Z,27.23
2023-04-17T11:24:31.253Z,25.55
2023-04-17T11:27:00.942Z,23.77
2023-04-17T11:29:28.243Z,25.23
2023-04-17T11:31:57.728Z,25.65
2023-04-17T11:34:27.855Z,26.95
2023-04-17T11:36:57.803Z,21.80
2023-04-17T11:39:26.636Z,24.58
2023-04-17T11:41:53.911Z,18.50
2023-04-17T11:44:21.213Z,22.42
2023-04-17T11:46:52.197Z,24.90
2023-04-17T11:49:33.012Z,22.27
2023-04-17T11:52:04.733Z,23.35
2023-04-17T11:54:37.154Z,18.67
2023-04-17T11:57:06.219Z,17.90
2023-04-17T11:59:38.635Z,25.92
2023-04-17T12:02:07.258Z,20.88
2023-04-17T12:04:36.810Z,26.42
2023-04-17T12:07:05.953Z,21.08
2023-04-17T12:09:34.033Z,22.45
2023-04-17T12:12:04.396Z,23.85
2023-04-17T12:14:32.232Z,18.73
2023-04-17T12:16:59.860Z,20.58
2023-04-17T12:19:27.926Z,20.05
2023-04-17T12:21:55.676Z,19.23
2023-04-17T12:24:25.061Z,20.95
2023-04-17T12:26:53.506Z,16.98
2023-04-17T12:29:29.406Z,19.50
2023-04-17T12:32:03.900Z,20.33
2023-04-17T12:34:31.242Z,21.00
2023-04-17T12:36:58.362Z,16.83
2023-04-17T12:39:25.433Z,15.68
2023-04-17T12:41:52.776Z,18.40
2023-04-17T12:44:19.819Z,20.85
2023-04-17T12:46:47.558Z,18.45
2023-04-17T12:49:15.909Z,17.95
2023-04-17T12:51:43.139Z,16.75
2023-04-17T12:54:10.493Z,18.02
2023-04-17T12:56:37.801Z,16.80
2023-04-17T12:59:04.840Z,16.70
2023-04-17T13:01:32.012Z,17.88
2023-04-17T13:03:59.254Z,17.48
2023-04-17T13:06:28.061Z,16.55
2023-04-17T13:08:55.226Z,17.85
2023-04-17T13:11:22.601Z,15.82
2023-04-17T13:13:49.659Z,16.15
2023-04-17T13:16:16.823Z,17.02
2023-04-17T13:18:43.866Z,17.60
2023-04-17T13:21:10.830Z,15.07
2023-04-17T13:23:37.906Z,16.15
2023-04-17T13:26:05.262Z,16.13
2023-04-17T13:28:32.364Z,12.27
2023-04-17T13:30:59.494Z,13.90
2023-04-17T13:33:26.834Z,12.60
2023-04-17T13:35:54.085Z,18.27
2023-04-17T13:38:21.178Z,15.65
2023-04-17T13:40:48.200Z,12.18
2023-04-17T13:43:15.273Z,17.88
2023-04-17T13:45:43.468Z,17.92
2023-04-17T13:48:11.434Z,15.82
2023-04-17T13:50:38.785Z,18.83
2023-04-17T13:53:05.903Z,14.27
2023-04-17T13:55:33.013Z,16.20
2023-04-17T13:58:00.659Z,12.88
2023-04-17T14:00:27.746Z,13.25
2023-04-17T14:02:54.815Z,11.75
2023-04-17T14:05:22.594Z,11.43
2023-04-17T14:07:49.682Z,10.60
2023-04-17T14:10:17.155Z,12.50
2023-04-17T14:12:44.414Z,13.75
2023-04-17T14:15:11.926Z,12.68
2023-04-17T14:17:42.982Z,13.45
2023-04-17T14:20:11.257Z,20.83
2023-04-17T14:22:38.275Z,16.38
2023-04-17T14:25:06.030Z,14.38
2023-04-17T14:27:35.558Z,13.55
2023-04-17T14:30:02.792Z,13.88
2023-04-17T14:32:30.191Z,18.35
2023-04-17T14:34:57.322Z,13.25
2023-04-17T14:37:24.394Z,12.52
2023-04-17T14:39:51.464Z,10.10
2023-04-17T14:42:18.752Z,12.68
2023-04-17T14:44:47.238Z,11.63
2023-04-17T14:47:14.396Z,14.27
2023-04-17T14:49:41.630Z,12.60
2023-04-17T14:52:08.749Z,10.63
2023-04-17T14:54:35.835Z,11.05
2023-04-17T14:57:02.873Z,9.60
2023-04-17T14:59:30.049Z,13.55
2023-04-17T15:01:57.133Z,10.85
2023-04-17T15:04:24.427Z,11.20
2023-04-17T16:14:39.170Z,15.73
2023-04-17T16:17:06.267Z,13.15
2023-04-17T16:19:33.609Z,20.65
2023-04-17T16:22:00.754Z,18.10
2023-04-17T16:24:27.994Z,12.95
2023-04-17T16:27:00.449Z,13.05
2023-04-17T16:29:27.669Z,14.07
2023-04-17T16:31:55.484Z,13.25
2023-04-17T16:34:22.709Z,12.02
2023-04-17T16:36:49.836Z,13.95
2023-04-17T16:39:17.414Z,13.93
2023-04-17T16:41:44.435Z,11.20
2023-04-17T16:44:11.667Z,15.77
2023-04-17T16:47:03.118Z,15.60
2023-04-17T16:49:25.929Z,13.88
2023-04-17T16:51:53.537Z,12.38
2023-04-17T16:54:22.244Z,11.73
2023-04-17T16:56:49.274Z,16.05
2023-04-17T16:59:16.368Z,13.05
2023-04-17T17:01:43.526Z,14.10
2023-04-17T17:04:10.705Z,16.23
2023-04-17T17:06:37.835Z,17.75
2023-04-17T17:09:04.920Z,17.50
2023-04-17T17:11:32.163Z,22.75
2023-04-17T17:13:59.220Z,17.00
2023-04-17T17:16:26.403Z,17.63
2023-04-17T17:18:53.775Z,17.98
2023-04-17T17:21:21.270Z,13.32
2023-04-17T17:23:49.253Z,13.50
2023-04-17T17:26:17.284Z,14.35
2023-04-17T17:28:51.522Z,19.27
2023-04-17T17:31:19.272Z,14.98
2023-04-17T17:33:54.052Z,20.17
2023-04-17T17:36:24.293Z,14.23
2023-04-17T17:38:55.872Z,16.00
2023-04-17T17:41:24.261Z,19.15
2023-04-17T17:43:52.545Z,19.65
2023-04-17T17:46:21.396Z,23.02
2023-04-17T17:48:48.497Z,16.23
2023-04-17T17:51:16.271Z,14.23
2023-04-17T17:53:43.270Z,16.88
2023-04-17T17:56:10.396Z,15.07
2023-04-17T17:58:37.464Z,14.10
2023-04-17T18:01:04.654Z,15.40
2023-04-17T18:03:32.839Z,15.25
2023-04-17T18:06:00.668Z,15.35
2023-04-17T18:08:27.657Z,18.58
2023-04-17T18:10:54.765Z,20.35
2023-04-17T18:13:22.380Z,17.80
2023-04-17T18:15:49.515Z,18.25
2023-04-17T18:18:16.640Z,17.27
2023-04-17T18:20:43.785Z,19.58
2023-04-17T18:23:10.995Z,19.73
2023-04-17T18:25:39.414Z,17.13
2023-04-17T18:28:06.685Z,15.90
2023-04-17T18:30:33.759Z,15.50
2023-04-17T18:33:00.955Z,23.58
2023-04-17T18:35:28.142Z,32.78
2023-04-17T18:37:56.456Z,18.23
2023-04-17T18:40:23.551Z,23.75
2023-04-17T18:42:50.830Z,29.60
2023-04-17T18:45:18.069Z,22.48
2023-04-17T18:47:46.048Z,22.58
2023-04-17T18:50:13.205Z,15.20
2023-04-17T18:52:47.637Z,27.88
2023-04-17T18:55:17.574Z,19.77
2023-04-17T18:57:44.647Z,17.98
2023-04-17T19:00:12.751Z,18.10
2023-04-17T19:02:40.732Z,24.33
2023-04-17T19:05:08.372Z,25.58
2023-04-17T19:07:35.460Z,19.75
2023-04-17T19:10:02.658Z,18.85
2023-04-17T19:12:30.504Z,16.48
2023-04-17T19:14:57.573Z,15.38
2023-04-17T19:17:25.444Z,16.40
2023-04-17T19:19:52.872Z,15.75
2023-04-17T19:22:20.045Z,19.70
2023-04-17T19:24:50.031Z,16.52
2023-04-17T19:27:17.798Z,15.70
2023-04-17T19:29:45.652Z,18.33
2023-04-17T19:32:13.428Z,20.95
2023-04-17T19:34:40.833Z,14.20
2023-04-17T19:37:07.941Z,12.48
2023-04-17T19:39:35.098Z,15.13
2023-04-17T19:42:02.852Z,12.85
2023-04-17T19:44:30.492Z,13.70
2023-04-17T19:46:57.822Z,12.77
2023-04-17T19:49:24.957Z,15.95
2023-04-17T19:51:53.068Z,14.30
2023-04-17T19:54:20.386Z,15.88
2023-04-17T19:56:47.994Z,12.35
2023-04-17T19:59:15.305Z,14.07
2023-04-17T20:01:44.411Z,13.07
2023-04-17T20:04:11.847Z,12.75
2023-04-17T20:06:40.831Z,17.75
2023-04-17T20:09:08.486Z,18.13
2023-04-17T20:11:36.438Z,17.70
2023-04-17T20:14:05.576Z,16.58
2023-04-17T20:16:32.746Z,16.23
2023-04-17T20:18:59.830Z,16.63
2023-04-17T20:21:26.886Z,15.57
2023-04-17T20:23:55.213Z,16.70
2023-04-17T20:26:23.119Z,16.13
2023-04-17T20:28:50.249Z,16.25
2023-04-17T20:31:17.567Z,17.13
2023-04-17T20:33:44.847Z,15.27
2023-04-17T20:36:12.536Z,17.83
2023-04-17T20:38:39.751Z,21.95
2023-04-17T20:41:06.865Z,15.90
2023-04-17T20:43:33.956Z,15.75
2023-04-17T20:46:01.405Z,19.55
2023-04-17T20:48:28.627Z,17.30
2023-04-17T20:50:55.906Z,15.60
2023-04-17T20:53:23.208Z,15.75
2023-04-17T20:55:50.478Z,16.60
2023-04-17T20:58:17.706Z,13.65
2023-04-17T21:01:00.073Z,15.45
2023-04-17T21:03:31.010Z,15.90
2023-04-17T21:05:58.473Z,14.88
2023-04-17T21:08:25.596Z,18.25
2023-04-17T21:10:53.345Z,13.02
2023-04-17T21:13:23.003Z,15.95
2023-04-17T21:15:50.233Z,14.93
2023-04-17T21:18:17.677Z,14.80
2023-04-17T21:20:44.653Z,14.32
2023-04-17T21:23:11.831Z,15.52
2023-04-17T21:25:38.883Z,16.67
2023-04-17T21:28:05.930Z,16.15
2023-04-17T21:30:33.031Z,17.08
2023-04-17T21:33:00.267Z,15.25
2023-04-17T21:35:27.595Z,17.05
2023-04-17T21:37:54.855Z,21.15
2023-04-17T21:40:23.021Z,15.30
2023-04-17T21:42:50.077Z,17.73
2023-04-17T21:45:20.352Z,20.08
2023-04-17T21:47:47.668Z,17.85
2023-04-17T21:50:14.976Z,17.05
2023-04-17T21:52:42.031Z,16.70
2023-04-17T21:55:09.164Z,15.65
2023-04-17T21:57:36.296Z,17.40
2023-04-17T22:00:05.273Z,20.40
2023-04-17T22:02:32.377Z,18.60
2023-04-17T22:04:59.600Z,19.00
2023-04-17T22:07:26.763Z,22.08
2023-04-17T22:09:53.834Z,18.70
2023-04-17T22:12:20.955Z,18.80
2023-04-17T22:14:49.297Z,18.75
2023-04-17T22:17:16.487Z,18.63
2023-04-17T22:19:43.750Z,20.95
2023-04-17T22:22:48.373Z,18.95
2023-04-17T22:28:38.344Z,21.77
2023-04-17T22:32:01.694Z,18.25
2023-04-17T22:35:06.019Z,20.60
2023-04-17T22:37:52.277Z,19.88
2023-04-17T22:40:38.078Z,18.10
2023-04-17T22:43:05.683Z,25.45
2023-04-17T22:46:10.179Z,16.25
2023-04-17T22:48:57.772Z,20.42
2023-04-17T22:52:02.499Z,20.48
2023-04-17T22:57:53.050Z,24.45
2023-04-17T23:00:57.435Z,19.10
2023-04-17T23:03:24.479Z,22.25
2023-04-17T23:06:47.771Z,18.10
2023-04-17T23:09:14.859Z,20.38
2023-04-17T23:11:41.964Z,22.73
2023-04-17T23:14:11.114Z,21.95
2023-04-17T23:16:38.563Z,18.67
2023-04-17T23:19:05.621Z,19.58
2023-04-17T23:21:32.784Z,19.30
2023-04-17T23:23:59.791Z,17.60
2023-04-17T23:26:26.991Z,22.55
2023-04-17T23:28:54.066Z,17.52
2023-04-17T23:31:22.028Z,16.88
2023-04-17T23:33:50.017Z,19.40
2023-04-17T23:36:17.601Z,19.77
2023-04-17T23:38:44.687Z,20.52
2023-04-17T23:41:11.747Z,23.05
2023-04-17T23:43:38.733Z,20.45
2023-04-17T23:46:06.222Z,22.52
2023-04-17T23:48:33.335Z,19.25
2023-04-17T23:51:00.607Z,18.48
2023-04-17T23:53:27.646Z,18.85
2023-04-17T23:55:54.636Z,19.50
2023-04-17T23:58:22.932Z,19.17
